createdAt,value
2022-07-30T00:00:25.865Z,4.87
2022-07-30T00:03:27.791Z,5.87
2022-07-30T00:06:29.284Z,5.27
2022-07-30T00:09:33.285Z,5.43
2022-07-30T00:12:35.983Z,6.57
2022-07-30T00:15:37.614Z,6.93
2022-07-30T00:18:39.217Z,6.50
2022-07-30T00:21:42.087Z,6.43
2022-07-30T00:24:44.317Z,4.97
2022-07-30T00:27:46.123Z,5.13
2022-07-30T00:30:47.621Z,5.87
2022-07-30T00:33:54.263Z,6.73
2022-07-30T00:36:55.745Z,7.60
2022-07-30T00:39:57.558Z,4.90
2022-07-30T00:42:58.996Z,5.40
2022-07-30T00:46:00.800Z,6.17
2022-07-30T00:49:02.390Z,4.57
2022-07-30T00:52:04.194Z,6.77
2022-07-30T00:55:08.216Z,6.47
2022-07-30T00:58:09.713Z,5.87
2022-07-30T01:01:11.526Z,5.10
2022-07-30T01:04:13.062Z,6.37
2022-07-30T01:07:14.655Z,5.80
2022-07-30T01:10:16.509Z,5.23
2022-07-30T01:13:18.202Z,7.80
2022-07-30T01:16:19.702Z,5.47
2022-07-30T01:19:46.648Z,7.73
2022-07-30T01:23:08.976Z,5.07
2022-07-30T01:26:14.419Z,5.20
2022-07-30T01:29:17.637Z,5.60
2022-07-30T01:32:22.619Z,6.00
2022-07-30T01:35:27.685Z,6.07
2022-07-30T01:38:34.889Z,7.43
2022-07-30T01:41:38.249Z,7.00
2022-07-30T01:44:41.579Z,6.17
2022-07-30T01:47:44.792Z,6.13
2022-07-30T01:50:49.066Z,6.63
2022-07-30T01:53:53.430Z,7.30
2022-07-30T01:56:57.280Z,5.53
2022-07-30T02:00:03.004Z,6.87
2022-07-30T02:03:18.386Z,5.73
2022-07-30T02:06:23.170Z,6.00
2022-07-30T02:09:31.264Z,5.60
2022-07-30T02:12:36.443Z,6.20
2022-07-30T02:15:48.757Z,6.37
2022-07-30T02:19:04.514Z,6.43
2022-07-30T02:22:15.312Z,6.20
2022-07-30T02:25:21.260Z,7.93
2022-07-30T02:28:24.431Z,6.53
2022-07-30T02:31:28.363Z,8.70
2022-07-30T02:34:33.977Z,7.43
2022-07-30T02:37:43.096Z,5.73
2022-07-30T02:40:46.548Z,5.80
2022-07-30T02:43:49.930Z,6.27
2022-07-30T02:46:54.408Z,7.13
2022-07-30T02:50:06.909Z,5.67
2022-07-30T02:53:10.907Z,7.63
2022-07-30T02:56:13.456Z,7.43
2022-07-30T02:59:20.883Z,5.93
2022-07-30T03:02:29.046Z,6.80
2022-07-30T03:05:31.582Z,6.40
2022-07-30T03:08:35.104Z,6.60
2022-07-30T03:11:37.289Z,9.73
2022-07-30T03:14:39.661Z,7.90
2022-07-30T03:17:49.048Z,6.43
2022-07-30T03:20:54.219Z,6.20
2022-07-30T03:23:56.693Z,7.10
2022-07-30T03:27:00.790Z,7.17
2022-07-30T03:30:03.356Z,7.13
2022-07-30T03:33:05.478Z,7.53
2022-07-30T03:36:08.492Z,9.43
2022-07-30T03:39:11.895Z,5.90
2022-07-30T03:42:13.827Z,8.23
2022-07-30T03:45:16.053Z,5.60
2022-07-30T03:48:18.088Z,6.60
2022-07-30T03:51:21.973Z,6.00
2022-07-30T03:54:23.733Z,5.90
2022-07-30T03:57:48.891Z,7.87
2022-07-30T04:00:51.769Z,6.67
2022-07-30T04:03:53.521Z,5.50
2022-07-30T04:06:55.066Z,5.73
2022-07-30T04:09:56.569Z,10.70
2022-07-30T04:13:13.441Z,8.80
2022-07-30T04:16:39.783Z,7.10
2022-07-30T04:19:49.812Z,8.07
2022-07-30T04:22:53.196Z,7.73
2022-07-30T04:25:55.862Z,9.87
2022-07-30T04:28:58.795Z,5.93
2022-07-30T04:32:00.846Z,5.33
2022-07-30T04:35:51.610Z,7.90
2022-07-30T04:39:00.029Z,5.97
2022-07-30T04:42:01.599Z,5.43
2022-07-30T04:45:09.660Z,5.60
2022-07-30T04:48:28.318Z,6.53
2022-07-30T04:51:39.055Z,6.57
2022-07-30T04:55:05.802Z,5.77
2022-07-30T04:58:08.917Z,9.33
2022-07-30T05:01:11.922Z,7.80
2022-07-30T05:04:16.166Z,6.50
2022-07-30T05:07:22.315Z,9.67
2022-07-30T05:10:24.445Z,6.97
2022-07-30T05:13:34.127Z,7.27
2022-07-30T05:16:38.185Z,7.30
2022-07-30T05:19:40.494Z,9.47
2022-07-30T05:22:42.730Z,7.20
2022-07-30T05:25:45.812Z,9.80
2022-07-30T05:28:55.193Z,5.43
2022-07-30T05:32:03.710Z,5.67
2022-07-30T05:35:09.280Z,7.30
2022-07-30T05:38:11.423Z,6.07
2022-07-30T05:41:31.832Z,6.57
2022-07-30T05:44:34.485Z,6.03
2022-07-30T05:47:36.199Z,8.87
2022-07-30T05:50:37.725Z,8.77
2022-07-30T05:53:40.290Z,6.60
2022-07-30T05:57:02.295Z,7.33
2022-07-30T06:00:11.928Z,6.43
2022-07-30T06:03:23.243Z,6.33
2022-07-30T06:06:44.952Z,7.93
2022-07-30T06:09:46.463Z,6.90
2022-07-30T06:12:48.508Z,6.33
2022-07-30T06:15:53.441Z,7.47
2022-07-30T06:18:54.967Z,8.23
2022-07-30T06:22:14.713Z,7.70
2022-07-30T06:25:21.834Z,6.13
2022-07-30T06:28:39.517Z,6.47
2022-07-30T06:31:55.613Z,7.03
2022-07-30T06:35:02.630Z,6.00
2022-07-30T06:38:07.985Z,8.70
2022-07-30T06:41:22.042Z,10.37
2022-07-30T06:44:27.122Z,10.53
2022-07-30T06:47:47.752Z,16.00
2022-07-30T06:50:49.452Z,11.87
2022-07-30T06:53:51.033Z,11.43
2022-07-30T06:57:12.450Z,22.07
2022-07-30T07:00:15.557Z,14.13
2022-07-30T07:03:19.992Z,15.40
2022-07-30T07:06:22.146Z,14.87
2022-07-30T07:09:23.618Z,12.43
2022-07-30T07:12:40.635Z,16.10
2022-07-30T07:15:42.306Z,9.10
2022-07-30T07:18:48.531Z,10.93
2022-07-30T07:21:50.550Z,8.90
2022-07-30T07:24:52.173Z,15.13
2022-07-30T07:28:11.169Z,10.07
2022-07-30T07:32:07.290Z,9.37
2022-07-30T07:34:36.244Z,11.23
2022-07-30T07:37:37.721Z,7.97
2022-07-30T07:40:40.931Z,8.60
2022-07-30T07:43:42.510Z,10.07
2022-07-30T07:46:53.093Z,7.10
2022-07-30T07:49:56.057Z,7.77
2022-07-30T07:52:57.832Z,8.63
2022-07-30T07:55:59.680Z,8.30
2022-07-30T07:59:01.324Z,13.60
2022-07-30T08:02:04.343Z,9.27
2022-07-30T08:05:25.028Z,8.80
2022-07-30T08:08:55.848Z,8.80
2022-07-30T08:12:22.572Z,9.67
2022-07-30T08:15:42.701Z,12.53
2022-07-30T08:19:19.192Z,9.23
2022-07-30T08:22:30.028Z,8.30
2022-07-30T08:25:31.628Z,8.77
2022-07-30T08:28:35.861Z,8.47
2022-07-30T08:31:37.981Z,8.30
2022-07-30T08:34:39.558Z,11.17
2022-07-30T08:37:42.153Z,6.83
2022-07-30T08:40:43.858Z,9.57
2022-07-30T08:43:50.867Z,7.47
2022-07-30T08:46:57.155Z,5.37
2022-07-30T08:50:29.028Z,12.03
2022-07-30T08:54:08.872Z,7.50
2022-07-30T08:57:11.806Z,7.80
2022-07-30T09:00:14.327Z,11.60
2022-07-30T09:03:16.406Z,11.23
2022-07-30T09:06:19.298Z,8.73
2022-07-30T09:09:20.965Z,7.57
2022-07-30T09:12:36.849Z,6.90
2022-07-30T09:15:38.922Z,5.32
2022-07-30T09:18:44.286Z,7.07
2022-07-30T09:21:56.935Z,7.50
2022-07-30T09:25:07.773Z,7.43
2022-07-30T09:28:38.426Z,4.28
2022-07-30T09:32:08.005Z,9.80
2022-07-30T09:35:43.276Z,5.78
2022-07-30T09:38:53.092Z,8.48
2022-07-30T09:42:20.328Z,5.72
2022-07-30T09:45:22.155Z,4.03
2022-07-30T09:48:25.732Z,6.55
2022-07-30T09:51:56.227Z,4.82
2022-07-30T09:54:59.888Z,4.20
2022-07-30T09:58:07.102Z,7.00
2022-07-30T10:01:09.878Z,7.13
2022-07-30T10:04:47.217Z,5.07
2022-07-30T10:08:01.110Z,5.78
2022-07-30T10:11:08.417Z,5.28
2022-07-30T10:14:10.449Z,7.35
2022-07-30T10:17:12.875Z,5.22
2022-07-30T10:20:16.407Z,7.90
2022-07-30T10:23:26.487Z,4.40
2022-07-30T10:26:53.172Z,5.72
2022-07-30T10:30:19.770Z,4.80
2022-07-30T10:33:34.912Z,6.43
2022-07-30T10:36:44.877Z,6.47
2022-07-30T10:40:11.134Z,5.20
2022-07-30T10:43:54.350Z,7.38
2022-07-30T10:47:07.674Z,4.72
2022-07-30T10:50:22.102Z,3.80
2022-07-30T10:53:37.181Z,8.75
2022-07-30T10:56:38.734Z,3.65
2022-07-30T10:59:49.388Z,5.40
2022-07-30T11:03:15.042Z,3.53
2022-07-30T11:06:24.244Z,4.32
2022-07-30T11:09:41.081Z,7.43
2022-07-30T11:12:44.688Z,5.05
2022-07-30T11:16:00.098Z,3.35
2022-07-30T11:19:55.160Z,6.57
2022-07-30T11:22:44.417Z,3.28
2022-07-30T11:25:51.186Z,3.20
2022-07-30T11:28:56.071Z,5.93
2022-07-30T11:32:26.387Z,4.47
2022-07-30T11:35:34.374Z,6.13
2022-07-30T11:38:54.129Z,5.65
2022-07-30T11:42:24.560Z,4.72
2022-07-30T11:45:29.267Z,2.40
2022-07-30T11:48:31.391Z,4.43
2022-07-30T11:51:43.761Z,3.95
2022-07-30T11:54:55.081Z,3.35
2022-07-30T11:57:58.216Z,3.47
2022-07-30T12:01:11.546Z,4.72
2022-07-30T12:04:13.092Z,3.97
2022-07-30T12:07:22.466Z,4.63
2022-07-30T12:10:26.741Z,5.35
2022-07-30T12:13:44.517Z,3.63
2022-07-30T12:16:52.948Z,4.65
2022-07-30T12:19:54.418Z,3.17
2022-07-30T12:22:57.438Z,3.58
2022-07-30T12:25:59.218Z,8.40
2022-07-30T12:29:04.817Z,5.50
2022-07-30T12:32:06.412Z,2.75
2022-07-30T12:35:08.538Z,4.40
2022-07-30T12:38:09.985Z,2.72
2022-07-30T12:41:11.416Z,4.53
2022-07-30T12:44:34.559Z,4.35
2022-07-30T12:47:36.310Z,4.07
2022-07-30T12:50:37.851Z,2.95
2022-07-30T12:53:39.825Z,2.25
2022-07-30T12:56:41.826Z,3.80
2022-07-30T12:59:43.273Z,2.28
2022-07-30T13:02:44.830Z,2.90
2022-07-30T13:05:48.558Z,4.22
2022-07-30T13:08:58.205Z,2.28
2022-07-30T13:11:59.746Z,3.28
2022-07-30T13:15:01.949Z,3.25
2022-07-30T13:18:03.453Z,2.20
2022-07-30T13:21:08.085Z,5.30
2022-07-30T13:24:10.937Z,4.65
2022-07-30T13:27:19.829Z,2.63
2022-07-30T13:30:21.384Z,6.55
2022-07-30T13:33:22.813Z,3.35
2022-07-30T13:36:24.666Z,2.70
2022-07-30T13:39:26.115Z,3.53
2022-07-30T13:42:27.539Z,7.00
2022-07-30T13:45:30.065Z,3.67
2022-07-30T13:48:32.664Z,5.50
2022-07-30T13:51:34.194Z,3.92
2022-07-30T13:54:35.643Z,3.03
2022-07-30T13:57:37.076Z,3.92
2022-07-30T14:00:40.866Z,1.90
2022-07-30T14:03:47.104Z,3.45
2022-07-30T14:06:50.880Z,3.17
2022-07-30T14:09:54.502Z,2.70
2022-07-30T14:12:57.446Z,2.65
2022-07-30T14:15:59.354Z,4.65
2022-07-30T14:19:00.795Z,3.63
2022-07-30T14:22:02.254Z,3.80
2022-07-30T14:25:04.012Z,7.65
2022-07-30T14:28:05.412Z,4.63
2022-07-30T14:31:06.820Z,4.07
2022-07-30T14:34:08.612Z,3.20
2022-07-30T14:37:14.517Z,5.68
2022-07-30T14:40:16.356Z,3.58
2022-07-30T14:43:19.412Z,4.05
2022-07-30T14:46:20.867Z,3.55
2022-07-30T14:49:22.779Z,5.13
2022-07-30T14:52:25.892Z,3.42
2022-07-30T14:55:27.595Z,4.22
2022-07-30T14:58:29.020Z,3.03
2022-07-30T15:01:30.551Z,3.45
2022-07-30T15:04:32.004Z,4.10
2022-07-30T15:07:34.738Z,3.47
2022-07-30T15:10:36.374Z,3.78
2022-07-30T15:13:49.682Z,2.65
2022-07-30T15:16:52.174Z,3.58
2022-07-30T15:19:53.563Z,2.20
2022-07-30T15:22:55.160Z,3.05
2022-07-30T15:25:56.608Z,4.93
2022-07-30T15:28:58.078Z,4.57
2022-07-30T15:32:00.457Z,4.40
2022-07-30T15:35:02.369Z,3.05
2022-07-30T15:38:04.037Z,2.85
2022-07-30T15:41:06.900Z,4.05
2022-07-30T15:44:09.837Z,1.98
2022-07-30T15:47:13.142Z,2.90
2022-07-30T15:50:16.598Z,2.65
2022-07-30T15:53:18.118Z,2.55
2022-07-30T15:56:19.599Z,2.33
2022-07-30T15:59:21.460Z,4.05
2022-07-30T16:02:23.000Z,2.63
2022-07-30T16:05:24.470Z,1.63
2022-07-30T16:08:26.047Z,4.68
2022-07-30T16:11:27.514Z,5.35
2022-07-30T16:14:35.095Z,1.80
2022-07-30T16:17:37.234Z,2.67
2022-07-30T16:20:38.773Z,4.05
2022-07-30T16:23:40.214Z,2.75
2022-07-30T16:26:41.908Z,3.28
2022-07-30T16:29:43.347Z,2.10
2022-07-30T16:32:44.776Z,2.67
2022-07-30T16:35:49.048Z,2.75
2022-07-30T16:38:51.970Z,6.07
2022-07-30T16:41:53.428Z,2.22
2022-07-30T16:44:54.861Z,1.70
2022-07-30T16:47:56.630Z,2.55
2022-07-30T16:50:58.867Z,1.73
2022-07-30T16:54:00.340Z,2.13
2022-07-30T16:57:04.004Z,2.78
2022-07-30T17:00:14.617Z,2.35
2022-07-30T17:03:20.216Z,1.58
2022-07-30T17:06:21.894Z,2.45
2022-07-30T17:09:23.308Z,4.45
2022-07-30T17:12:25.388Z,2.50
2022-07-30T17:15:32.738Z,2.85
2022-07-30T17:18:34.684Z,1.63
2022-07-30T17:21:36.287Z,3.60
2022-07-30T17:24:37.767Z,3.72
2022-07-30T17:27:39.429Z,2.55
2022-07-30T17:30:40.848Z,3.70
2022-07-30T17:33:42.272Z,2.17
2022-07-30T17:36:52.230Z,2.80
2022-07-30T17:40:26.410Z,2.92
2022-07-30T17:43:15.955Z,4.30
2022-07-30T17:46:17.675Z,3.00
2022-07-30T17:49:19.131Z,3.85
2022-07-30T17:52:25.956Z,5.22
2022-07-30T17:55:28.834Z,3.78
2022-07-30T17:58:30.377Z,2.00
2022-07-30T18:01:32.314Z,2.45
2022-07-30T18:04:34.702Z,2.33
2022-07-30T18:07:37.027Z,2.65
2022-07-30T18:10:38.593Z,3.78
2022-07-30T18:13:40.397Z,4.90
2022-07-30T18:16:41.862Z,7.80
2022-07-30T18:19:43.351Z,19.27
2022-07-30T18:22:44.847Z,4.72
2022-07-30T18:25:53.070Z,8.93
2022-07-30T18:28:55.783Z,7.05
2022-07-30T18:31:57.277Z,7.85
2022-07-30T18:34:58.702Z,4.97
2022-07-30T18:38:00.282Z,3.47
2022-07-30T18:41:02.811Z,4.63
2022-07-30T18:44:04.481Z,2.33
2022-07-30T18:47:05.963Z,2.72
2022-07-30T18:50:08.291Z,5.15
2022-07-30T18:53:15.301Z,5.55
2022-07-30T18:56:17.401Z,2.67
2022-07-30T18:59:19.697Z,3.88
2022-07-30T19:02:25.260Z,3.30
2022-07-30T19:05:26.996Z,3.45
2022-07-30T19:08:28.605Z,4.30
2022-07-30T19:11:30.060Z,6.30
2022-07-30T19:14:31.559Z,4.85
2022-07-30T19:17:45.323Z,2.70
2022-07-30T19:20:50.507Z,5.72
2022-07-30T19:23:51.961Z,2.50
2022-07-30T19:26:53.509Z,4.75
2022-07-30T19:29:54.957Z,5.13
2022-07-30T19:33:03.503Z,4.03
2022-07-30T19:36:05.096Z,2.30
2022-07-30T19:39:07.660Z,3.70
2022-07-30T19:42:10.173Z,3.28
2022-07-30T19:45:13.207Z,4.55
2022-07-30T19:48:29.083Z,4.18
2022-07-30T19:52:09.459Z,2.47
2022-07-30T19:54:54.598Z,4.32
2022-07-30T19:57:56.447Z,5.72
2022-07-30T20:00:58.144Z,5.43
2022-07-30T20:04:01.278Z,4.72
2022-07-30T20:07:03.496Z,2.28
2022-07-30T20:10:07.681Z,2.47
2022-07-30T20:13:09.165Z,2.10
2022-07-30T20:16:15.367Z,5.00
2022-07-30T20:19:18.210Z,2.63
2022-07-30T20:22:23.975Z,4.20
2022-07-30T20:25:25.993Z,2.70
2022-07-30T20:28:27.400Z,4.15
2022-07-30T20:31:30.085Z,3.20
2022-07-30T20:34:35.500Z,2.40
2022-07-30T20:40:58.381Z,3.75
2022-07-30T20:44:02.377Z,4.18
2022-07-30T20:47:08.342Z,4.32
2022-07-30T20:50:11.979Z,3.53
2022-07-30T20:53:16.044Z,3.53
2022-07-30T20:56:20.028Z,4.85
2022-07-30T20:59:23.699Z,4.82
2022-07-30T21:02:28.271Z,3.60
2022-07-30T21:05:30.168Z,3.85
2022-07-30T21:08:32.808Z,3.05
2022-07-30T21:11:35.904Z,2.60
2022-07-30T21:14:37.452Z,3.05
2022-07-30T21:17:39.036Z,5.20
2022-07-30T21:20:40.955Z,5.85
2022-07-30T21:23:48.856Z,3.55
2022-07-30T21:26:51.480Z,6.18
2022-07-30T21:29:52.900Z,3.88
2022-07-30T21:32:55.113Z,4.30
2022-07-30T21:35:56.525Z,3.65
2022-07-30T21:38:59.461Z,3.53
2022-07-30T21:42:04.707Z,6.28
2022-07-30T21:45:07.150Z,5.90
2022-07-30T21:48:09.380Z,3.05
2022-07-30T21:51:13.643Z,5.15
2022-07-30T21:54:28.487Z,4.95
2022-07-30T21:57:31.560Z,3.47
2022-07-30T22:00:48.208Z,4.50
2022-07-30T22:04:03.246Z,4.75
2022-07-30T22:07:09.300Z,4.90
2022-07-30T22:10:12.899Z,4.20
2022-07-30T22:13:23.507Z,4.22
2022-07-30T22:16:25.211Z,4.75
2022-07-30T22:19:26.633Z,5.95
2022-07-30T22:22:35.539Z,4.87
2022-07-30T22:25:39.722Z,3.55
2022-07-30T22:28:46.599Z,3.08
2022-07-30T22:31:54.106Z,2.80
2022-07-30T22:34:55.740Z,4.53
2022-07-30T22:37:58.904Z,6.00
2022-07-30T22:41:01.400Z,2.37
2022-07-30T22:44:03.913Z,4.70
2022-07-30T22:50:27.437Z,3.63
2022-07-30T22:53:56.842Z,4.77
2022-07-30T22:56:50.716Z,2.50
2022-07-30T22:59:58.720Z,3.00
2022-07-30T23:03:02.035Z,2.97
2022-07-30T23:06:03.602Z,5.20
2022-07-30T23:09:05.134Z,4.40
2022-07-30T23:12:07.436Z,2.70
2022-07-30T23:12:18.232Z,5.38
2022-07-30T23:12:33.727Z,2.80
2022-07-30T23:15:10.462Z,3.97
2022-07-30T23:18:12.019Z,4.10
2022-07-30T23:21:14.019Z,6.23
2022-07-30T23:24:17.693Z,2.50
2022-07-30T23:27:19.374Z,2.67
2022-07-30T23:30:20.933Z,3.47
2022-07-30T23:33:22.391Z,2.93
2022-07-30T23:36:23.977Z,3.30
2022-07-30T23:39:25.453Z,3.67
2022-07-30T23:42:26.865Z,2.67
2022-07-30T23:45:28.425Z,3.47
2022-07-30T23:48:31.561Z,3.57
2022-07-30T23:51:33.565Z,4.80
2022-07-30T23:54:35.156Z,3.20
2022-07-30T23:57:37.209Z,4.23
